Time;durP1;ratioP1;P1;durP2;ratioP2;P2;SDS_P1;SDS_P2;PMS_P1;PMS_P2;Temp;Humidity;BMP_temperature;BMP_pressure;BME280_temperature;BME280_humidity;BME280_pressure;Samples;Min_cycle;Max_cycle;Signal;HPM_P1;HPM_P2
2023/04/28 00:02:00;;;;;;;;;2.33;2.33;;;;;-147.47;100.00;64613.53;5069058;28;45340;-81
2023/04/28 00:04:28;;;;;;;;;2.00;2.00;;;;;-147.47;100.00;64613.53;5067557;28;47253;-83
2023/04/28 00:06:54;;;;;;;;;3.67;3.67;;;;;-147.47;100.00;64613.53;5082258;28;46996;-84
2023/04/28 00:09:19;;;;;;;;;2.00;2.00;;;;;-147.47;100.00;64613.53;5051646;28;45424;-84
2023/04/28 00:11:46;;;;;;;;;2.33;2.33;;;;;-147.47;100.00;64613.53;5047997;28;45491;-83
2023/04/28 00:14:12;;;;;;;;;5.00;3.00;;;;;-147.47;100.00;64613.53;5045388;28;46102;-82
2023/04/28 00:16:38;;;;;;;;;2.00;2.00;;;;;-147.47;100.00;64613.53;5065571;28;46557;-82
2023/04/28 00:19:03;;;;;;;;;3.00;3.00;;;;;-147.47;100.00;64613.53;5086052;28;45589;-83
2023/04/28 00:21:29;;;;;;;;;4.75;2.00;;;;;-147.47;100.00;64613.53;5048089;28;45261;-85
2023/04/28 00:23:54;;;;;;;;;4.00;3.00;;;;;-147.47;100.00;64613.53;5042719;28;45391;-82
2023/04/28 00:26:20;;;;;;;;;3.00;2.75;;;;;-147.47;100.00;64613.53;5065371;28;45401;-85
2023/04/28 00:28:45;;;;;;;;;6.67;3.67;;;;;-147.47;100.00;64613.53;5051523;28;45530;-81
2023/04/28 00:31:12;;;;;;;;;2.50;2.50;;;;;-147.47;100.00;64613.53;5065785;28;45344;-83
2023/04/28 00:33:42;;;;;;;;;4.00;2.33;;;;;-147.47;100.00;64613.53;5064918;28;45341;-83
2023/04/28 00:36:08;;;;;;;;;2.00;2.00;;;;;-147.47;100.00;64613.53;5066088;28;45389;-83
2023/04/28 00:38:34;;;;;;;;;4.33;1.33;;;;;-147.47;100.00;64613.53;5046857;28;45380;-82
2023/04/28 00:41:00;;;;;;;;;3.67;3.00;;;;;-147.47;100.00;64613.53;5068970;28;45432;-83
2023/04/28 00:43:25;;;;;;;;;3.00;3.00;;;;;-147.47;100.00;64613.53;5061404;28;45405;-82
2023/04/28 00:45:51;;;;;;;;;4.00;2.00;;;;;-147.47;100.00;64613.53;5064598;28;45688;-84
2023/04/28 00:48:17;;;;;;;;;3.25;3.00;;;;;-147.47;100.00;64613.53;5064553;28;45376;-82
2023/04/28 00:50:44;;;;;;;;;1.00;1.00;;;;;-147.47;100.00;64613.53;5076110;28;45182;-83
2023/04/28 00:53:10;;;;;;;;;4.00;3.33;;;;;-147.47;100.00;64613.53;5063329;28;45492;-82
2023/04/28 00:55:37;;;;;;;;;3.00;3.00;;;;;-147.47;100.00;64613.53;5052616;28;45377;-82
2023/04/28 00:58:04;;;;;;;;;2.75;2.75;;;;;-147.47;100.00;64613.53;5062806;28;45402;-82
2023/04/28 01:00:29;;;;;;;;;2.33;2.33;;;;;-147.47;100.00;64613.53;5071240;28;45520;-84
2023/04/28 01:02:56;;;;;;;;;3.00;3.00;;;;;-147.47;100.00;64613.53;5070285;28;45582;-82
2023/04/28 01:05:24;;;;;;;;;2.25;2.25;;;;;-147.47;100.00;64613.53;5069368;28;46411;-83
2023/04/28 01:07:50;;;;;;;;;4.00;3.33;;;;;-147.47;100.00;64613.53;5039279;28;45441;-82
2023/04/28 01:10:16;;;;;;;;;2.00;2.00;;;;;-147.47;100.00;64613.53;5055953;28;45979;-82
2023/04/28 01:12:41;;;;;;;;;2.00;1.75;;;;;-147.47;100.00;64613.53;5085496;28;45427;-83
2023/04/28 01:15:13;;;;;;;;;3.33;2.67;;;;;-147.47;100.00;64613.53;5070137;28;45931;-82
2023/04/28 01:17:38;;;;;;;;;3.00;3.00;;;;;-147.47;100.00;64613.53;5068815;28;45382;-83
2023/04/28 01:20:04;;;;;;;;;2.50;2.50;;;;;-147.47;100.00;64613.53;5059865;28;45678;-81
2023/04/28 01:22:30;;;;;;;;;2.00;2.00;;;;;-147.47;100.00;64613.53;5063542;28;45355;-81
2023/04/28 01:24:56;;;;;;;;;2.67;2.00;;;;;-147.47;100.00;64613.53;5065507;28;45993;-81
2023/04/28 01:27:22;;;;;;;;;2.00;2.00;;;;;-147.47;100.00;64613.53;5080110;28;45420;-83
2023/04/28 01:29:47;;;;;;;;;1.00;1.00;;;;;-147.47;100.00;64613.53;5054223;28;45055;-83
2023/04/28 01:32:13;;;;;;;;;2.25;0.25;;;;;-147.47;100.00;64613.53;5064797;28;45664;-81
2023/04/28 01:34:39;;;;;;;;;2.50;1.50;;;;;-147.47;100.00;64613.53;5074066;28;45399;-83
2023/04/28 01:37:04;;;;;;;;;2.75;2.75;;;;;-147.47;100.00;64613.53;5065506;28;45479;-80
2023/04/28 01:39:30;;;;;;;;;1.00;1.00;;;;;-147.47;100.00;64613.53;5055403;28;45383;-82
2023/04/28 01:41:55;;;;;;;;;1.00;1.00;;;;;-147.47;100.00;64613.53;5055372;28;45202;-83
2023/04/28 01:44:20;;;;;;;;;3.67;2.00;;;;;-147.47;100.00;64613.53;5072971;28;45359;-82
2023/04/28 01:46:46;;;;;;;;;3.50;2.00;;;;;-147.47;100.00;64613.53;5065279;28;45379;-81
2023/04/28 01:49:12;;;;;;;;;1.75;1.25;;;;;-147.47;100.00;64613.53;5075299;28;45449;-82
2023/04/28 01:51:37;;;;;;;;;3.00;3.00;;;;;-147.47;100.00;64613.53;5057474;28;45811;-81
2023/04/28 01:54:03;;;;;;;;;2.00;1.25;;;;;-147.47;100.00;64613.53;5061644;28;46921;-82
2023/04/28 01:56:28;;;;;;;;;3.75;3.00;;;;;-147.47;100.00;64613.53;5079082;28;45516;-81
2023/04/28 01:58:54;;;;;;;;;2.50;2.50;;;;;-147.47;100.00;64613.53;5068306;28;45383;-81
2023/04/28 02:01:19;;;;;;;;;2.25;1.50;;;;;-147.47;100.00;64613.53;5050492;28;45255;-84
2023/04/28 02:03:45;;;;;;;;;2.00;2.00;;;;;-147.47;100.00;64613.53;5068431;28;45587;-81
2023/04/28 02:06:10;;;;;;;;;2.00;2.00;;;;;-147.47;100.00;64613.53;5079518;28;45430;-83
2023/04/28 02:08:36;;;;;;;;;1.75;1.75;;;;;-147.47;100.00;64613.53;5055603;28;45464;-82
2023/04/28 02:11:02;;;;;;;;;2.50;1.00;;;;;-147.47;100.00;64613.53;5087532;28;45777;-82
2023/04/28 02:13:28;;;;;;;;;1.67;1.67;;;;;-147.47;100.00;64613.53;5055422;28;46265;-85
2023/04/28 02:15:54;;;;;;;;;2.50;1.75;;;;;-147.47;100.00;64613.53;5056092;28;45467;-83
2023/04/28 02:18:19;;;;;;;;;2.00;2.00;;;;;-147.47;100.00;64613.53;5058913;28;45800;-82
2023/04/28 02:20:45;;;;;;;;;2.00;2.00;;;;;-147.47;100.00;64613.53;5080144;28;45839;-82
2023/04/28 02:23:10;;;;;;;;;2.00;2.00;;;;;-147.47;100.00;64613.53;5061834;28;45273;-84
2023/04/28 02:25:36;;;;;;;;;3.33;2.00;;;;;-147.47;100.00;64613.53;5060466;28;45651;-81
2023/04/28 02:28:02;;;;;;;;;1.00;1.00;;;;;-147.47;100.00;64613.53;5067974;28;45352;-82
2023/04/28 02:30:27;;;;;;;;;2.00;2.00;;;;;-147.47;100.00;64613.53;5059761;28;46093;-82
2023/04/28 02:32:54;;;;;;;;;1.00;1.00;;;;;-147.47;100.00;64613.53;5048220;28;45430;-82
2023/04/28 02:35:20;;;;;;;;;2.00;1.00;;;;;-147.47;100.00;64613.53;5078969;28;45430;-81
2023/04/28 02:37:45;;;;;;;;;1.75;1.75;;;;;-147.47;100.00;64613.53;5068187;28;45607;-82
2023/04/28 02:40:11;;;;;;;;;2.00;2.00;;;;;-147.47;100.00;64613.53;5069566;28;45797;-83
2023/04/28 02:42:37;;;;;;;;;3.67;1.67;;;;;-147.47;100.00;64613.53;5067576;28;45434;-84
2023/04/28 02:45:02;;;;;;;;;1.00;1.00;;;;;-147.47;100.00;64613.53;5068579;28;45849;-83
2023/04/28 02:47:28;;;;;;;;;3.33;2.00;;;;;-147.47;100.00;64613.53;5068185;28;45545;-83
2023/04/28 02:49:54;;;;;;;;;2.00;2.00;;;;;-147.47;100.00;64613.53;5065946;28;45537;-83
2023/04/28 02:52:19;;;;;;;;;2.00;1.25;;;;;-147.47;100.00;64613.53;5072639;28;45429;-84
2023/04/28 02:54:47;;;;;;;;;1.00;1.00;;;;;-147.47;100.00;64613.53;5062835;28;45512;-84
2023/04/28 02:57:13;;;;;;;;;1.00;1.00;;;;;-147.47;100.00;64613.53;5046452;28;44774;-82
2023/04/28 02:59:38;;;;;;;;;0.75;0.75;;;;;-147.47;100.00;64613.53;5058164;28;45447;-84
2023/04/28 03:02:03;;;;;;;;;1.00;1.00;;;;;-147.47;100.00;64613.53;5049079;28;46805;-84
2023/04/28 03:04:29;;;;;;;;;1.00;1.00;;;;;-147.47;100.00;64613.53;5072619;28;45422;-82
2023/04/28 03:06:55;;;;;;;;;1.00;0.00;;;;;-147.47;100.00;64613.53;5075080;28;45458;-82
2023/04/28 03:09:20;;;;;;;;;3.00;1.00;;;;;-147.47;100.00;64613.53;5072416;28;45974;-82
2023/04/28 03:11:46;;;;;;;;;1.00;1.00;;;;;-147.47;100.00;64613.53;5072986;28;45655;-83
2023/04/28 03:14:11;;;;;;;;;1.00;1.00;;;;;-147.47;100.00;64613.53;5073452;28;45466;-82
2023/04/28 03:16:37;;;;;;;;;1.00;1.00;;;;;-147.47;100.00;64613.53;5060664;28;45413;-82
2023/04/28 03:19:02;;;;;;;;;0.00;0.00;;;;;-147.47;100.00;64613.53;5064128;28;44871;-83
2023/04/28 03:21:28;;;;;;;;;1.75;1.75;;;;;-147.47;100.00;64613.53;5055713;28;45621;-81
2023/04/28 03:23:53;;;;;;;;;3.00;2.00;;;;;-147.47;100.00;64613.53;5062044;28;45338;-84
2023/04/28 03:26:19;;;;;;;;;1.00;1.00;;;;;-147.47;100.00;64613.53;5061206;28;45497;-83
2023/04/28 03:28:45;;;;;;;;;2.00;1.00;;;;;-147.47;100.00;64613.53;5049324;28;46803;-82
2023/04/28 03:31:10;;;;;;;;;1.00;1.00;;;;;-147.47;100.00;64613.53;5072095;28;45510;-82
2023/04/28 03:33:38;;;;;;;;;1.00;1.00;;;;;-147.47;100.00;64613.53;5059124;28;45289;-83
2023/04/28 03:36:04;;;;;;;;;1.00;1.00;;;;;-147.47;100.00;64613.53;5064267;28;45419;-82
2023/04/28 03:38:30;;;;;;;;;0.00;0.00;;;;;-147.47;100.00;64613.53;5049310;28;46047;-82
2023/04/28 03:40:55;;;;;;;;;0.50;0.50;;;;;-147.47;100.00;64613.53;5066205;28;45636;-82
2023/04/28 03:43:21;;;;;;;;;0.25;0.25;;;;;-147.47;100.00;64613.53;5046034;28;45636;-82
2023/04/28 03:45:48;;;;;;;;;1.50;0.50;;;;;-147.47;100.00;64613.53;5059819;28;45344;-82
2023/04/28 03:48:13;;;;;;;;;0.00;0.00;;;;;-147.47;100.00;64613.53;5065177;28;45458;-82
2023/04/28 03:50:41;;;;;;;;;0.00;0.00;;;;;-147.47;100.00;64613.53;5058715;28;47038;-83
2023/04/28 03:53:07;;;;;;;;;1.25;1.25;;;;;-147.47;100.00;64613.53;5063499;28;45453;-82
2023/04/28 03:55:32;;;;;;;;;1.00;1.00;;;;;-147.47;100.00;64613.53;5061548;28;45485;-81
2023/04/28 03:57:57;;;;;;;;;1.00;1.00;;;;;-147.47;100.00;64613.53;5056523;28;45801;-80
2023/04/28 04:00:23;;;;;;;;;0.50;0.50;;;;;-147.47;100.00;64613.53;5049814;28;46871;-83
2023/04/28 04:02:48;;;;;;;;;3.50;1.00;;;;;-147.47;100.00;64613.53;5078000;28;45002;-83
2023/04/28 04:05:14;;;;;;;;;1.00;1.00;;;;;-147.47;100.00;64613.53;5053342;28;45629;-82
2023/04/28 04:07:40;;;;;;;;;0.25;0.25;;;;;-147.47;100.00;64613.53;5049580;28;46486;-82
2023/04/28 04:10:06;;;;;;;;;0.00;0.00;;;;;-147.47;100.00;64613.53;5064497;28;46141;-83
2023/04/28 04:12:31;;;;;;;;;0.75;0.75;;;;;-147.47;100.00;64613.53;5070728;28;45563;-83
2023/04/28 04:14:57;;;;;;;;;1.00;1.00;;;;;-147.47;100.00;64613.53;5081154;28;44781;-82
2023/04/28 04:17:22;;;;;;;;;1.00;1.00;;;;;-147.47;100.00;64613.53;5079252;28;45371;-81
2023/04/28 04:19:47;;;;;;;;;0.00;0.00;;;;;-147.47;100.00;64613.53;5063176;28;45450;-81
2023/04/28 04:22:13;;;;;;;;;0.75;0.00;;;;;-147.47;100.00;64613.53;5063955;28;45402;-83
2023/04/28 04:24:38;;;;;;;;;0.00;0.00;;;;;-147.47;100.00;64613.53;5047032;28;44883;-82
2023/04/28 04:27:04;;;;;;;;;0.75;0.00;;;;;-147.47;100.00;64613.53;5059196;28;45442;-81
2023/04/28 04:29:30;;;;;;;;;1.00;1.00;;;;;-147.47;100.00;64613.53;5035493;28;47024;-82
2023/04/28 04:31:56;;;;;;;;;1.00;1.00;;;;;-147.47;100.00;64613.53;5052811;28;45542;-82
2023/04/28 04:34:21;;;;;;;;;0.00;0.00;;;;;-147.47;100.00;64613.53;5062589;28;45432;-81
2023/04/28 04:36:47;;;;;;;;;0.00;0.00;;;;;-147.47;100.00;64613.53;5061411;28;45411;-80
2023/04/28 04:39:12;;;;;;;;;1.00;1.00;;;;;-147.47;100.00;64613.53;5057037;28;46179;-83
2023/04/28 04:41:38;;;;;;;;;1.25;1.00;;;;;-147.47;100.00;64613.53;5055178;28;45188;-83
2023/04/28 04:44:04;;;;;;;;;1.00;1.00;;;;;-147.47;100.00;64613.53;5055429;28;45462;-83
2023/04/28 04:46:30;;;;;;;;;0.25;0.25;;;;;-147.47;100.00;64613.53;5063091;28;46089;-83
2023/04/28 04:48:56;;;;;;;;;1.00;1.00;;;;;-147.47;100.00;64613.53;5064306;28;45744;-82
2023/04/28 04:51:26;;;;;;;;;0.00;0.00;;;;;-147.47;100.00;64613.53;5059864;28;45470;-82
2023/04/28 04:53:52;;;;;;;;;0.50;0.50;;;;;-147.47;100.00;64613.53;5038817;28;45303;-84
2023/04/28 04:56:17;;;;;;;;;1.00;1.00;;;;;-147.47;100.00;64613.53;5065665;28;45552;-82
2023/04/28 04:58:44;;;;;;;;;0.75;0.75;;;;;-147.47;100.00;64613.53;5052602;28;45534;-82
2023/04/28 05:01:09;;;;;;;;;2.00;0.25;;;;;-147.47;100.00;64613.53;5045230;28;45388;-81
2023/04/28 05:03:35;;;;;;;;;0.00;0.00;;;;;-147.47;100.00;64613.53;5064107;28;45311;-81
2023/04/28 05:06:01;;;;;;;;;2.50;1.00;;;;;-147.47;100.00;64613.53;5053480;28;45891;-80
2023/04/28 05:08:27;;;;;;;;;1.00;1.00;;;;;-147.47;100.00;64613.53;5057307;28;46499;-82
2023/04/28 05:10:53;;;;;;;;;1.25;1.25;;;;;-147.47;100.00;64613.53;5065238;28;45447;-83
2023/04/28 05:13:18;;;;;;;;;0.00;0.00;;;;;-147.47;100.00;64613.53;5059663;28;45274;-82
2023/04/28 05:15:44;;;;;;;;;0.00;0.00;;;;;-147.47;100.00;64613.53;5059259;28;45512;-84
2023/04/28 05:18:10;;;;;;;;;0.50;0.50;;;;;-147.47;100.00;64613.53;5064359;28;45458;-82
2023/04/28 05:20:36;;;;;;;;;0.75;0.75;;;;;-147.47;100.00;64613.53;5069238;28;45411;-83
2023/04/28 05:23:02;;;;;;;;;0.00;0.00;;;;;-147.47;100.00;64613.53;5079283;28;44817;-82
2023/04/28 05:25:27;;;;;;;;;0.00;0.00;;;;;-147.47;100.00;64613.53;5053383;28;46033;-81
2023/04/28 05:27:53;;;;;;;;;0.00;0.00;;;;;-147.47;100.00;64613.53;5071821;28;45795;-83
2023/04/28 05:30:19;;;;;;;;;0.00;0.00;;;;;-147.47;100.00;64613.53;5055290;28;45752;-83
2023/04/28 05:32:44;;;;;;;;;1.25;1.25;;;;;-147.47;100.00;64613.53;5055085;28;45334;-83
2023/04/28 05:35:10;;;;;;;;;1.00;1.00;;;;;-147.47;100.00;64613.53;5059639;28;45717;-82
2023/04/28 05:37:36;;;;;;;;;0.25;0.25;;;;;-147.47;100.00;64613.53;5041574;28;45550;-86
2023/04/28 05:40:02;;;;;;;;;0.00;0.00;;;;;-147.47;100.00;64613.53;5058514;28;45417;-85
2023/04/28 05:42:27;;;;;;;;;1.00;1.00;;;;;-147.47;100.00;64613.53;5053266;28;45604;-83
2023/04/28 05:44:53;;;;;;;;;0.50;0.50;;;;;-147.47;100.00;64613.53;5067300;28;44857;-83
2023/04/28 05:47:18;;;;;;;;;0.00;0.00;;;;;-147.47;100.00;64613.53;5066972;28;46125;-84
2023/04/28 05:49:44;;;;;;;;;0.25;0.00;;;;;-147.47;100.00;64613.53;5038240;28;45188;-85
2023/04/28 05:52:09;;;;;;;;;0.75;0.00;;;;;-147.47;100.00;64613.53;5061706;28;45564;-82
2023/04/28 05:54:35;;;;;;;;;0.00;0.00;;;;;-147.47;100.00;64613.53;5065549;28;44879;-81
2023/04/28 05:57:00;;;;;;;;;0.00;0.00;;;;;-147.47;100.00;64613.53;5064056;28;48008;-83
2023/04/28 05:59:27;;;;;;;;;1.00;1.00;;;;;-147.47;100.00;64613.53;5051476;28;45489;-82
2023/04/28 06:01:53;;;;;;;;;0.00;0.00;;;;;-147.47;100.00;64613.53;5067790;28;45376;-83
2023/04/28 06:04:18;;;;;;;;;1.00;1.00;;;;;-147.47;100.00;64613.53;5056800;28;45516;-83
2023/04/28 06:06:44;;;;;;;;;1.00;1.00;;;;;-147.47;100.00;64613.53;5080005;28;45349;-83
2023/04/28 06:09:09;;;;;;;;;0.50;0.50;;;;;-147.47;100.00;64613.53;5056842;28;45820;-83
2023/04/28 06:11:35;;;;;;;;;0.50;0.50;;;;;-147.47;100.00;64613.53;5082195;28;45851;-84
2023/04/28 06:14:00;;;;;;;;;2.00;0.00;;;;;-147.47;100.00;64613.53;5037947;28;45857;-81
2023/04/28 06:16:27;;;;;;;;;0.00;0.00;;;;;-147.47;100.00;64613.53;5076030;28;45511;-84
2023/04/28 06:18:53;;;;;;;;;1.00;0.00;;;;;-147.47;100.00;64613.53;5064418;28;44869;-83
2023/04/28 06:21:20;;;;;;;;;2.00;0.25;;;;;-147.47;100.00;64613.53;5062560;28;45327;-82
2023/04/28 06:23:45;;;;;;;;;0.75;0.75;;;;;-147.47;100.00;64613.53;5062281;28;45903;-83
2023/04/28 06:26:11;;;;;;;;;0.00;0.00;;;;;-147.47;100.00;64613.53;5062869;28;45446;-83
2023/04/28 06:28:37;;;;;;;;;1.00;1.00;;;;;-147.47;100.00;64613.53;5032474;28;45294;-85
2023/04/28 06:31:02;;;;;;;;;1.75;0.75;;;;;-147.47;100.00;64613.53;5044690;28;45357;-83
2023/04/28 06:33:27;;;;;;;;;0.00;0.00;;;;;-147.47;100.00;64613.53;5040926;28;45320;-81
2023/04/28 06:35:53;;;;;;;;;0.00;0.00;;;;;-147.47;100.00;64613.53;5015924;28;45554;-80
2023/04/28 06:38:19;;;;;;;;;0.75;0.75;;;;;-147.47;100.00;64613.53;5032985;28;44766;-83
2023/04/28 06:40:47;;;;;;;;;0.75;0.00;;;;;-147.47;100.00;64613.53;5031466;28;45203;-83
2023/04/28 06:43:12;;;;;;;;;1.00;0.50;;;;;-147.47;100.00;64613.53;5032075;28;45424;-82
2023/04/28 06:45:38;;;;;;;;;0.00;0.00;;;;;-147.47;100.00;64613.53;5022580;28;46528;-83
2023/04/28 06:48:04;;;;;;;;;0.50;0.50;;;;;-147.47;100.00;64613.53;5034915;28;45885;-81
2023/04/28 06:50:30;;;;;;;;;1.00;1.00;;;;;-147.47;100.00;64613.53;5049977;28;45742;-82
2023/04/28 06:52:56;;;;;;;;;0.25;0.25;;;;;-147.47;100.00;64613.53;5009756;28;45569;-81
2023/04/28 06:55:22;;;;;;;;;1.25;1.25;;;;;-147.47;100.00;64613.53;5030786;28;46131;-82
2023/04/28 06:57:48;;;;;;;;;0.50;0.50;;;;;-147.47;100.00;64613.53;5021543;28;45448;-84
2023/04/28 07:00:14;;;;;;;;;1.00;1.00;;;;;-147.47;100.00;64613.53;5024432;28;45392;-82
2023/04/28 07:02:39;;;;;;;;;1.00;0.50;;;;;-147.47;100.00;64613.53;5021066;28;45299;-83
2023/04/28 07:05:05;;;;;;;;;1.25;1.25;;;;;-147.47;100.00;64613.53;5035659;28;46251;-84
2023/04/28 07:07:31;;;;;;;;;2.25;1.00;;;;;-147.47;100.00;64613.53;5010399;28;45610;-83
2023/04/28 07:09:57;;;;;;;;;0.00;0.00;;;;;-147.47;100.00;64613.53;5018312;28;45944;-82
2023/04/28 07:12:23;;;;;;;;;1.00;1.00;;;;;-147.47;100.00;64613.53;5031655;28;45509;-84
2023/04/28 07:14:49;;;;;;;;;0.00;0.00;;;;;-147.47;100.00;64613.53;5022740;28;46734;-83
2023/04/28 07:17:15;;;;;;;;;1.00;1.00;;;;;-147.47;100.00;64613.53;5015029;28;45720;-82
2023/04/28 07:19:40;;;;;;;;;1.25;1.25;;;;;-147.47;100.00;64613.53;5018399;28;44856;-83
2023/04/28 07:22:06;;;;;;;;;1.00;0.00;;;;;-147.47;100.00;64613.53;5020446;28;45530;-85
2023/04/28 07:24:32;;;;;;;;;1.00;1.00;;;;;-147.47;100.00;64613.53;5018729;28;45321;-82
2023/04/28 07:26:57;;;;;;;;;0.00;0.00;;;;;-147.47;100.00;64613.53;5015957;28;45474;-83
2023/04/28 07:29:23;;;;;;;;;3.25;1.50;;;;;-147.47;100.00;64613.53;5047593;28;45006;-82
2023/04/28 07:31:49;;;;;;;;;1.00;1.00;;;;;-147.47;100.00;64613.53;5045819;28;46789;-83
2023/04/28 07:34:21;;;;;;;;;2.00;1.50;;;;;-147.47;100.00;64613.53;5064218;28;47401;-84
2023/04/28 07:36:46;;;;;;;;;2.25;1.00;;;;;-147.47;100.00;64613.53;5063363;28;45802;-82
2023/04/28 07:39:12;;;;;;;;;2.25;0.75;;;;;-147.47;100.00;64613.53;5053028;28;45737;-84
2023/04/28 07:41:40;;;;;;;;;3.00;1.00;;;;;-147.47;100.00;64613.53;5037276;28;45758;-81
2023/04/28 07:44:09;;;;;;;;;1.00;1.00;;;;;-147.47;100.00;64613.53;5056352;28;46425;-84
2023/04/28 07:46:35;;;;;;;;;1.00;1.00;;;;;-147.47;100.00;64613.53;5053692;28;45434;-84
2023/04/28 07:49:01;;;;;;;;;1.00;1.00;;;;;-147.47;100.00;64613.53;5032640;28;45497;-84
2023/04/28 07:51:27;;;;;;;;;1.00;1.00;;;;;-147.47;100.00;64613.53;5066402;28;46094;-82
2023/04/28 07:53:52;;;;;;;;;1.00;1.00;;;;;-147.47;100.00;64613.53;5062110;28;45831;-83
2023/04/28 07:56:18;;;;;;;;;1.25;1.00;;;;;-147.47;100.00;64613.53;5047553;28;45755;-83
2023/04/28 07:58:43;;;;;;;;;0.00;0.00;;;;;-147.47;100.00;64613.53;5058852;28;45304;-83
2023/04/28 08:01:10;;;;;;;;;1.00;1.00;;;;;-147.47;100.00;64613.53;5066989;28;45555;-85
2023/04/28 08:03:36;;;;;;;;;0.00;0.00;;;;;-147.47;100.00;64613.53;5060157;28;46592;-83
2023/04/28 08:06:02;;;;;;;;;1.00;1.00;;;;;-147.47;100.00;64613.53;5045483;28;45486;-82
2023/04/28 08:08:28;;;;;;;;;2.75;1.00;;;;;-147.47;100.00;64613.53;5077701;28;45436;-81
2023/04/28 08:10:54;;;;;;;;;1.00;1.00;;;;;-147.47;100.00;64613.53;5077697;28;45542;-84
2023/04/28 08:13:19;;;;;;;;;0.00;0.00;;;;;-147.47;100.00;64613.53;5064290;28;46077;-83
2023/04/28 08:15:46;;;;;;;;;1.75;1.00;;;;;-147.47;100.00;64613.53;5074089;28;45506;-83
2023/04/28 08:18:12;;;;;;;;;1.00;1.00;;;;;-147.47;100.00;64613.53;5071086;28;45450;-84
2023/04/28 08:20:37;;;;;;;;;0.00;0.00;;;;;-147.47;100.00;64613.53;5068854;28;45756;-83
2023/04/28 08:23:03;;;;;;;;;1.00;1.00;;;;;-147.47;100.00;64613.53;5074100;28;45713;-84
2023/04/28 08:25:28;;;;;;;;;0.75;0.75;;;;;-147.47;100.00;64613.53;5071772;28;45827;-82
2023/04/28 08:27:54;;;;;;;;;1.25;1.00;;;;;-147.47;100.00;64613.53;5084183;28;45403;-82
2023/04/28 08:30:20;;;;;;;;;3.00;1.25;;;;;-147.47;100.00;64613.53;5063439;28;45339;-81
2023/04/28 08:32:47;;;;;;;;;2.50;1.00;;;;;-147.47;100.00;64613.53;5065237;28;45398;-84
2023/04/28 08:35:14;;;;;;;;;0.00;0.00;;;;;-147.47;100.00;64613.53;5059584;28;45270;-82
2023/04/28 08:37:40;;;;;;;;;1.75;1.75;;;;;-147.47;100.00;64613.53;5068335;28;45339;-82
2023/04/28 08:40:08;;;;;;;;;0.00;0.00;;;;;-147.47;100.00;64613.53;5036270;28;46046;-84
2023/04/28 08:42:36;;;;;;;;;1.00;0.50;;;;;-147.47;100.00;64613.53;5053144;28;47054;-81
2023/04/28 08:45:03;;;;;;;;;1.00;1.00;;;;;-147.47;100.00;64613.53;5074470;28;45395;-81
2023/04/28 08:47:44;;;;;;;;;2.00;1.00;;;;;-147.47;100.00;64613.53;5058574;28;45525;-83
2023/04/28 08:50:11;;;;;;;;;2.00;2.00;;;;;-147.47;100.00;64613.53;5056230;28;45772;-85
2023/04/28 08:52:38;;;;;;;;;1.00;1.00;;;;;-147.47;100.00;64613.53;5058420;28;45620;-84
2023/04/28 08:55:11;;;;;;;;;1.00;1.00;;;;;-147.47;100.00;64613.53;5038139;28;45749;-83
2023/04/28 08:57:44;;;;;;;;;0.50;0.50;;;;;-147.47;100.00;64613.53;5056355;28;45425;-84
2023/04/28 09:00:11;;;;;;;;;1.00;0.25;;;;;-147.47;100.00;64613.53;5056333;28;45688;-82
2023/04/28 09:02:36;;;;;;;;;1.50;1.50;;;;;-147.47;100.00;64613.53;5033646;28;47927;-81
2023/04/28 09:05:12;;;;;;;;;1.25;0.25;;;;;-147.47;100.00;64613.53;5029455;28;45442;-83
2023/04/28 09:07:38;;;;;;;;;1.75;1.00;;;;;-147.47;100.00;64613.53;5058877;28;45559;-84
2023/04/28 09:10:18;;;;;;;;;2.00;1.00;;;;;-147.47;100.00;64613.53;5075872;28;45534;-81
2023/04/28 09:12:43;;;;;;;;;0.00;0.00;;;;;-147.47;100.00;64613.53;5071679;28;45544;-82
2023/04/28 09:15:09;;;;;;;;;1.00;1.00;;;;;-147.47;100.00;64613.53;5054749;28;45399;-82
2023/04/28 09:17:50;;;;;;;;;0.50;0.50;;;;;-147.47;100.00;64613.53;5071498;28;45292;-82
2023/04/28 09:20:23;;;;;;;;;0.75;0.75;;;;;-147.47;100.00;64613.53;5059760;28;45572;-84
2023/04/28 09:22:50;;;;;;;;;0.00;0.00;;;;;-147.47;100.00;64613.53;5061219;28;45411;-83
2023/04/28 09:25:17;;;;;;;;;1.00;1.00;;;;;-147.47;100.00;64613.53;5061470;28;45791;-83
2023/04/28 09:27:42;;;;;;;;;0.00;0.00;;;;;-147.47;100.00;64613.53;5056745;28;45442;-82
2023/04/28 09:30:11;;;;;;;;;1.00;1.00;;;;;-147.47;100.00;64613.53;5056441;28;45816;-82
2023/04/28 09:32:37;;;;;;;;;0.00;0.00;;;;;-147.47;100.00;64613.53;5054388;28;45440;-83
2023/04/28 09:35:03;;;;;;;;;0.00;0.00;;;;;-147.47;100.00;64613.53;5047856;28;45896;-81
2023/04/28 09:37:30;;;;;;;;;0.00;0.00;;;;;-147.47;100.00;64613.53;5064008;28;45773;-81
2023/04/28 09:39:57;;;;;;;;;0.00;0.00;;;;;-147.47;100.00;64613.53;5067037;28;45595;-83
2023/04/28 09:42:45;;;;;;;;;1.75;1.00;;;;;-147.47;100.00;64613.53;5065444;28;46594;-83
2023/04/28 09:45:13;;;;;;;;;1.50;0.25;;;;;-147.47;100.00;64613.53;5061466;28;45505;-83
2023/04/28 09:47:41;;;;;;;;;2.00;0.50;;;;;-147.47;100.00;64613.53;5063654;28;45890;-84
2023/04/28 09:50:14;;;;;;;;;1.00;1.00;;;;;-147.47;100.00;64613.53;5063864;28;45623;-83
2023/04/28 09:52:44;;;;;;;;;1.00;1.00;;;;;-147.47;100.00;64613.53;5054946;28;46387;-81
2023/04/28 09:55:11;;;;;;;;;0.50;0.50;;;;;-147.47;100.00;64613.53;5058286;28;45313;-82
2023/04/28 09:57:38;;;;;;;;;2.00;1.00;;;;;-147.47;100.00;64613.53;5059281;28;45431;-81
2023/04/28 10:00:09;;;;;;;;;3.00;3.00;;;;;-147.47;100.00;64613.53;5061420;28;45551;-80
2023/04/28 10:02:36;;;;;;;;;0.00;0.00;;;;;-147.47;100.00;64613.53;5063824;28;46432;-82
2023/04/28 10:05:03;;;;;;;;;0.75;0.00;;;;;-147.47;100.00;64613.53;5047173;28;45436;-82
2023/04/28 10:07:34;;;;;;;;;1.00;1.00;;;;;-147.47;100.00;64613.53;5060963;28;45323;-84
2023/04/28 10:10:13;;;;;;;;;1.50;1.00;;;;;-147.47;100.00;64613.53;5055129;28;45967;-84
2023/04/28 10:12:39;;;;;;;;;0.75;0.75;;;;;-147.47;100.00;64613.53;5067959;28;45508;-83
2023/04/28 10:15:06;;;;;;;;;0.00;0.00;;;;;-147.47;100.00;64613.53;5051766;28;45716;-83
2023/04/28 10:17:33;;;;;;;;;1.00;1.00;;;;;-147.47;100.00;64613.53;5036179;28;45517;-86
2023/04/28 10:19:59;;;;;;;;;1.00;1.00;;;;;-147.47;100.00;64613.53;5053422;28;45741;-82
2023/04/28 10:22:49;;;;;;;;;1.00;1.00;;;;;-147.47;100.00;64613.53;5070784;28;46931;-83
2023/04/28 10:25:28;;;;;;;;;0.00;0.00;;;;;-147.47;100.00;64613.53;5072270;28;45865;-83
2023/04/28 10:27:56;;;;;;;;;0.25;0.25;;;;;-147.47;100.00;64613.53;5073608;28;45533;-83
2023/04/28 10:30:23;;;;;;;;;0.00;0.00;;;;;-147.47;100.00;64613.53;5064277;28;45802;-83
2023/04/28 10:33:08;;;;;;;;;2.00;0.75;;;;;-147.47;100.00;64613.53;5046863;28;46509;-83
2023/04/28 10:35:35;;;;;;;;;1.00;1.00;;;;;-147.47;100.00;64613.53;5053336;28;44780;-83
2023/04/28 10:38:13;;;;;;;;;0.00;0.00;;;;;-147.47;100.00;64613.53;5046442;28;45431;-83
2023/04/28 10:40:42;;;;;;;;;0.25;0.25;;;;;-147.47;100.00;64613.53;5063489;28;45584;-84
2023/04/28 10:43:12;;;;;;;;;1.00;1.00;;;;;-147.47;100.00;64613.53;5065152;28;45921;-83
2023/04/28 10:45:55;;;;;;;;;1.20;1.20;;;;;-147.47;100.00;64613.53;5053715;28;45368;-83
2023/04/28 10:48:33;;;;;;;;;1.00;0.00;;;;;-147.47;100.00;64613.53;5063644;28;45497;-84
2023/04/28 10:53:42;;;;;;;;;1.00;1.00;;;;;-147.47;100.00;64613.53;5061074;28;45538;-83
2023/04/28 10:56:25;;;;;;;;;0.80;0.80;;;;;-147.47;100.00;64613.53;5031876;28;45715;-83
2023/04/28 10:58:52;;;;;;;;;1.00;1.00;;;;;-147.47;100.00;64613.53;5056659;28;45478;-83
2023/04/28 11:01:20;;;;;;;;;0.00;0.00;;;;;-147.47;100.00;64613.53;5041793;28;46787;-82
2023/04/28 11:03:49;;;;;;;;;0.60;0.60;;;;;-147.47;100.00;64613.53;5048631;28;47979;-81
2023/04/28 11:06:31;;;;;;;;;0.60;0.60;;;;;-147.47;100.00;64613.53;5054774;28;44866;-82
2023/04/28 11:09:03;;;;;;;;;1.40;0.20;;;;;-147.47;100.00;64613.53;5052921;28;45783;-83
2023/04/28 11:11:32;;;;;;;;;0.60;0.00;;;;;-147.47;100.00;64613.53;5054862;28;45564;-81